Dallas, Texas
Current Conditions -  °F | °C
As of 3:53 PM on Tuesday 21 Oct 2014 (Local Time) from KDAL Reporting Station
Few Clouds Few Clouds  
Wind Chill: 27°   Ceiling: Unl
Heat Index: 27°   Visibility: 10mi
Dew Point: 14°   Wind: 7mph
Humidity: 44%   Direction: 120°ESE
Pressure: 30.03"   Gusts: NA
Location:  32.78°N, 96.79°W
Report Text: KDAL 212053Z 12006KT 10SM FEW050 FEW300 27/14 A3003 RMK AO2 SLP162 T02720139 56019
Loading
Personal Weather Stations






























Interactive Weather Map
Tropical Storm Tracking
New forecast layout! Learn more

10-Day Weather Forecast

Advertisements
Track Severe Weather on mobile